sensor_id;sensor_type;location;lat;lon;timestamp;temperature;humidity
33815;DHT22;20121;51.910;8.406;2023-10-09T00:01:26;11.90;99.90
33815;DHT22;20121;51.910;8.406;2023-10-09T00:03:52;12.60;99.90
33815;DHT22;20121;51.910;8.406;2023-10-09T00:06:22;12.10;99.90
33815;DHT22;20121;51.910;8.406;2023-10-09T00:09:06;12.20;99.90
33815;DHT22;20121;51.910;8.406;2023-10-09T00:11:52;11.90;99.90
33815;DHT22;20121;51.910;8.406;2023-10-09T00:14:26;12.10;99.90
33815;DHT22;20121;51.910;8.406;2023-10-09T00:16:55;12.20;99.90
33815;DHT22;20121;51.910;8.406;2023-10-09T00:19:27;12.20;99.90
33815;DHT22;20121;51.910;8.406;2023-10-09T00:21:58;12.20;99.90
33815;DHT22;20121;51.910;8.406;2023-10-09T00:24:31;12.30;99.90
33815;DHT22;20121;51.910;8.406;2023-10-09T00:26:57;12.30;99.90
33815;DHT22;20121;51.910;8.406;2023-10-09T00:29:40;12.60;99.90
33815;DHT22;20121;51.910;8.406;2023-10-09T00:32:12;12.30;99.90
33815;DHT22;20121;51.910;8.406;2023-10-09T00:34:52;12.70;99.90
33815;DHT22;20121;51.910;8.406;2023-10-09T00:37:18;12.60;99.90
33815;DHT22;20121;51.910;8.406;2023-10-09T00:39:49;12.50;99.90
33815;DHT22;20121;51.910;8.406;2023-10-09T00:42:21;12.40;99.90
33815;DHT22;20121;51.910;8.406;2023-10-09T00:44:58;12.20;99.90
33815;DHT22;20121;51.910;8.406;2023-10-09T00:47:33;12.40;99.90
33815;DHT22;20121;51.910;8.406;2023-10-09T00:50:07;12.40;99.90
33815;DHT22;20121;51.910;8.406;2023-10-09T00:52:37;12.40;99.90
33815;DHT22;20121;51.910;8.406;2023-10-09T00:55:15;12.50;99.90
33815;DHT22;20121;51.910;8.406;2023-10-09T00:57:48;12.50;99.90
33815;DHT22;20121;51.910;8.406;2023-10-09T01:00:16;11.90;99.90
33815;DHT22;20121;51.910;8.406;2023-10-09T01:02:59;12.30;99.90
33815;DHT22;20121;51.910;8.406;2023-10-09T01:05:36;12.20;99.90
33815;DHT22;20121;51.910;8.406;2023-10-09T01:08:03;12.20;99.90
33815;DHT22;20121;51.910;8.406;2023-10-09T01:10:45;12.30;99.90
33815;DHT22;20121;51.910;8.406;2023-10-09T01:13:16;12.00;99.90
33815;DHT22;20121;51.910;8.406;2023-10-09T01:15:44;12.10;99.90
33815;DHT22;20121;51.910;8.406;2023-10-09T01:18:10;12.00;99.90
33815;DHT22;20121;51.910;8.406;2023-10-09T01:20:36;12.20;99.90
33815;DHT22;20121;51.910;8.406;2023-10-09T01:23:12;11.90;99.90
33815;DHT22;20121;51.910;8.406;2023-10-09T01:25:38;12.20;99.90
33815;DHT22;20121;51.910;8.406;2023-10-09T01:28:11;12.60;99.90
33815;DHT22;20121;51.910;8.406;2023-10-09T01:30:42;12.00;99.90
33815;DHT22;20121;51.910;8.406;2023-10-09T01:33:08;12.20;99.90
33815;DHT22;20121;51.910;8.406;2023-10-09T01:35:47;11.90;99.90
33815;DHT22;20121;51.910;8.406;2023-10-09T01:38:15;12.30;99.90
33815;DHT22;20121;51.910;8.406;2023-10-09T01:40:41;12.00;99.90
33815;DHT22;20121;51.910;8.406;2023-10-09T01:43:06;12.10;99.90
33815;DHT22;20121;51.910;8.406;2023-10-09T01:45:38;12.30;99.90
33815;DHT22;20121;51.910;8.406;2023-10-09T01:48:12;12.20;99.90
33815;DHT22;20121;51.910;8.406;2023-10-09T01:50:40;12.70;99.90
33815;DHT22;20121;51.910;8.406;2023-10-09T01:53:08;12.20;99.90
33815;DHT22;20121;51.910;8.406;2023-10-09T01:55:34;12.40;99.90
33815;DHT22;20121;51.910;8.406;2023-10-09T01:58:03;12.40;99.90
33815;DHT22;20121;51.910;8.406;2023-10-09T02:00:31;12.40;99.90
33815;DHT22;20121;51.910;8.406;2023-10-09T02:03:01;12.60;99.90
33815;DHT22;20121;51.910;8.406;2023-10-09T02:05:31;12.40;99.90
33815;DHT22;20121;51.910;8.406;2023-10-09T02:08:01;12.40;99.90
33815;DHT22;20121;51.910;8.406;2023-10-09T02:10:29;12.40;99.90
33815;DHT22;20121;51.910;8.406;2023-10-09T02:12:59;12.90;99.90
33815;DHT22;20121;51.910;8.406;2023-10-09T02:15:27;12.40;99.90
33815;DHT22;20121;51.910;8.406;2023-10-09T02:20:50;12.50;99.90
33815;DHT22;20121;51.910;8.406;2023-10-09T02:23:28;12.30;99.90
33815;DHT22;20121;51.910;8.406;2023-10-09T02:26:12;12.20;99.90
33815;DHT22;20121;51.910;8.406;2023-10-09T02:28:51;12.50;99.90
33815;DHT22;20121;51.910;8.406;2023-10-09T02:31:30;12.70;99.90
33815;DHT22;20121;51.910;8.406;2023-10-09T02:34:17;12.40;99.90
33815;DHT22;20121;51.910;8.406;2023-10-09T02:36:47;12.70;99.90
33815;DHT22;20121;51.910;8.406;2023-10-09T02:39:24;12.90;99.90
33815;DHT22;20121;51.910;8.406;2023-10-09T02:41:55;12.50;99.90
33815;DHT22;20121;51.910;8.406;2023-10-09T02:44:25;12.40;99.90
33815;DHT22;20121;51.910;8.406;2023-10-09T02:46:52;12.30;99.90
33815;DHT22;20121;51.910;8.406;2023-10-09T02:49:23;12.70;99.90
33815;DHT22;20121;51.910;8.406;2023-10-09T02:51:49;12.40;99.90
33815;DHT22;20121;51.910;8.406;2023-10-09T02:54:18;12.80;99.90
33815;DHT22;20121;51.910;8.406;2023-10-09T02:57:00;13.10;99.90
33815;DHT22;20121;51.910;8.406;2023-10-09T02:59:34;12.70;99.90
33815;DHT22;20121;51.910;8.406;2023-10-09T03:02:00;12.70;99.90
33815;DHT22;20121;51.910;8.406;2023-10-09T03:04:26;12.70;99.90
33815;DHT22;20121;51.910;8.406;2023-10-09T03:07:00;12.80;99.90
33815;DHT22;20121;51.910;8.406;2023-10-09T03:09:26;12.80;99.90
33815;DHT22;20121;51.910;8.406;2023-10-09T03:11:59;12.40;99.90
33815;DHT22;20121;51.910;8.406;2023-10-09T03:14:36;12.50;99.90
33815;DHT22;20121;51.910;8.406;2023-10-09T03:17:04;12.80;99.90
33815;DHT22;20121;51.910;8.406;2023-10-09T03:19:31;12.80;99.90
33815;DHT22;20121;51.910;8.406;2023-10-09T03:21:59;12.90;99.90
33815;DHT22;20121;51.910;8.406;2023-10-09T03:24:25;13.20;99.90
33815;DHT22;20121;51.910;8.406;2023-10-09T03:26:53;12.40;99.90
33815;DHT22;20121;51.910;8.406;2023-10-09T03:29:22;12.80;99.90
33815;DHT22;20121;51.910;8.406;2023-10-09T03:31:47;12.80;99.90
33815;DHT22;20121;51.910;8.406;2023-10-09T03:34:16;12.90;99.90
33815;DHT22;20121;51.910;8.406;2023-10-09T03:39:09;13.20;99.90
33815;DHT22;20121;51.910;8.406;2023-10-09T03:41:54;12.80;99.90
33815;DHT22;20121;51.910;8.406;2023-10-09T03:44:20;12.50;99.90
33815;DHT22;20121;51.910;8.406;2023-10-09T03:46:46;12.90;99.90
33815;DHT22;20121;51.910;8.406;2023-10-09T03:49:12;13.10;99.90
33815;DHT22;20121;51.910;8.406;2023-10-09T03:51:39;13.60;99.90
33815;DHT22;20121;51.910;8.406;2023-10-09T03:54:05;13.00;99.90
33815;DHT22;20121;51.910;8.406;2023-10-09T03:56:35;12.40;99.90
33815;DHT22;20121;51.910;8.406;2023-10-09T03:59:01;12.80;99.90
33815;DHT22;20121;51.910;8.406;2023-10-09T04:01:30;13.40;99.90
33815;DHT22;20121;51.910;8.406;2023-10-09T04:04:03;13.00;99.90
33815;DHT22;20121;51.910;8.406;2023-10-09T04:06:32;13.00;99.90
33815;DHT22;20121;51.910;8.406;2023-10-09T04:09:02;13.40;99.90
33815;DHT22;20121;51.910;8.406;2023-10-09T04:11:43;13.20;99.90
33815;DHT22;20121;51.910;8.406;2023-10-09T04:14:12;13.00;99.90
33815;DHT22;20121;51.910;8.406;2023-10-09T04:16:48;13.10;99.90
33815;DHT22;20121;51.910;8.406;2023-10-09T04:19:17;12.80;99.90
33815;DHT22;20121;51.910;8.406;2023-10-09T04:21:48;13.00;99.90
33815;DHT22;20121;51.910;8.406;2023-10-09T04:24:14;13.00;99.90
33815;DHT22;20121;51.910;8.406;2023-10-09T04:26:44;12.80;99.90
33815;DHT22;20121;51.910;8.406;2023-10-09T04:29:16;13.00;99.90
33815;DHT22;20121;51.910;8.406;2023-10-09T04:32:04;13.00;99.90
33815;DHT22;20121;51.910;8.406;2023-10-09T04:34:34;13.00;99.90
33815;DHT22;20121;51.910;8.406;2023-10-09T04:37:14;12.50;99.90
33815;DHT22;20121;51.910;8.406;2023-10-09T04:39:40;13.20;99.90
33815;DHT22;20121;51.910;8.406;2023-10-09T04:42:41;13.00;99.90
33815;DHT22;20121;51.910;8.406;2023-10-09T04:45:23;13.10;99.90
33815;DHT22;20121;51.910;8.406;2023-10-09T04:48:07;12.90;99.90
33815;DHT22;20121;51.910;8.406;2023-10-09T04:50:35;12.90;99.90
33815;DHT22;20121;51.910;8.406;2023-10-09T04:53:01;12.80;99.90
33815;DHT22;20121;51.910;8.406;2023-10-09T04:55:41;13.20;99.90
33815;DHT22;20121;51.910;8.406;2023-10-09T04:58:23;13.00;99.90
33815;DHT22;20121;51.910;8.406;2023-10-09T05:00:54;13.00;99.90
33815;DHT22;20121;51.910;8.406;2023-10-09T05:03:23;13.00;99.90
33815;DHT22;20121;51.910;8.406;2023-10-09T05:06:07;13.10;99.90
33815;DHT22;20121;51.910;8.406;2023-10-09T05:08:51;13.00;99.90
33815;DHT22;20121;51.910;8.406;2023-10-09T05:11:22;13.20;99.90
33815;DHT22;20121;51.910;8.406;2023-10-09T05:14:02;13.30;99.90
33815;DHT22;20121;51.910;8.406;2023-10-09T05:16:39;13.30;99.90
33815;DHT22;20121;51.910;8.406;2023-10-09T05:19:23;13.30;99.90
33815;DHT22;20121;51.910;8.406;2023-10-09T05:22:08;13.10;99.90
33815;DHT22;20121;51.910;8.406;2023-10-09T05:24:43;13.40;99.90
33815;DHT22;20121;51.910;8.406;2023-10-09T05:27:12;13.40;99.90
33815;DHT22;20121;51.910;8.406;2023-10-09T05:29:43;13.20;99.90
33815;DHT22;20121;51.910;8.406;2023-10-09T05:32:25;13.20;99.90
33815;DHT22;20121;51.910;8.406;2023-10-09T05:34:55;13.60;99.90
33815;DHT22;20121;51.910;8.406;2023-10-09T05:37:28;13.40;99.90
33815;DHT22;20121;51.910;8.406;2023-10-09T05:40:08;13.50;99.90
33815;DHT22;20121;51.910;8.406;2023-10-09T05:42:44;13.90;99.90
33815;DHT22;20121;51.910;8.406;2023-10-09T05:45:15;12.50;99.90
33815;DHT22;20121;51.910;8.406;2023-10-09T05:47:51;13.60;99.90
33815;DHT22;20121;51.910;8.406;2023-10-09T05:50:30;13.60;99.90
33815;DHT22;20121;51.910;8.406;2023-10-09T05:53:00;13.80;99.90
33815;DHT22;20121;51.910;8.406;2023-10-09T05:55:27;13.70;99.90
33815;DHT22;20121;51.910;8.406;2023-10-09T05:58:12;13.60;99.90
33815;DHT22;20121;51.910;8.406;2023-10-09T06:00:56;13.40;99.90
33815;DHT22;20121;51.910;8.406;2023-10-09T06:03:41;14.00;99.90
33815;DHT22;20121;51.910;8.406;2023-10-09T06:06:37;13.60;99.90
33815;DHT22;20121;51.910;8.406;2023-10-09T06:09:14;13.70;99.90
33815;DHT22;20121;51.910;8.406;2023-10-09T06:11:48;13.50;99.90
33815;DHT22;20121;51.910;8.406;2023-10-09T06:14:15;13.70;99.90
33815;DHT22;20121;51.910;8.406;2023-10-09T06:16:51;13.70;99.90
33815;DHT22;20121;51.910;8.406;2023-10-09T06:19:23;13.70;99.90
33815;DHT22;20121;51.910;8.406;2023-10-09T06:21:58;13.40;99.90
33815;DHT22;20121;51.910;8.406;2023-10-09T06:24:42;13.80;99.90
33815;DHT22;20121;51.910;8.406;2023-10-09T06:27:13;13.70;99.90
33815;DHT22;20121;51.910;8.406;2023-10-09T06:29:49;13.80;99.90
33815;DHT22;20121;51.910;8.406;2023-10-09T06:32:15;13.80;99.90
33815;DHT22;20121;51.910;8.406;2023-10-09T06:34:48;14.40;99.90
33815;DHT22;20121;51.910;8.406;2023-10-09T06:37:22;13.90;99.90
33815;DHT22;20121;51.910;8.406;2023-10-09T06:39:52;13.80;99.90
33815;DHT22;20121;51.910;8.406;2023-10-09T06:42:30;14.40;99.90
33815;DHT22;20121;51.910;8.406;2023-10-09T06:45:01;14.30;99.90
33815;DHT22;20121;51.910;8.406;2023-10-09T06:47:31;14.40;99.90
33815;DHT22;20121;51.910;8.406;2023-10-09T06:50:07;13.90;99.90
33815;DHT22;20121;51.910;8.406;2023-10-09T06:52:45;13.70;99.90
33815;DHT22;20121;51.910;8.406;2023-10-09T06:55:27;14.10;99.90
33815;DHT22;20121;51.910;8.406;2023-10-09T06:58:01;14.30;99.90
33815;DHT22;20121;51.910;8.406;2023-10-09T07:00:39;14.30;99.90
33815;DHT22;20121;51.910;8.406;2023-10-09T07:03:39;14.10;99.90
33815;DHT22;20121;51.910;8.406;2023-10-09T07:06:26;14.30;99.90
33815;DHT22;20121;51.910;8.406;2023-10-09T07:09:01;14.30;99.90
33815;DHT22;20121;51.910;8.406;2023-10-09T07:11:33;14.50;99.90
33815;DHT22;20121;51.910;8.406;2023-10-09T07:14:05;14.50;99.90
33815;DHT22;20121;51.910;8.406;2023-10-09T07:16:35;14.60;99.90
33815;DHT22;20121;51.910;8.406;2023-10-09T07:19:05;14.90;99.90
33815;DHT22;20121;51.910;8.406;2023-10-09T07:21:56;14.70;99.90
33815;DHT22;20121;51.910;8.406;2023-10-09T07:24:28;14.80;99.90
33815;DHT22;20121;51.910;8.406;2023-10-09T07:29:39;14.70;99.90
33815;DHT22;20121;51.910;8.406;2023-10-09T07:32:14;15.20;99.90
33815;DHT22;20121;51.910;8.406;2023-10-09T07:34:49;14.80;99.90
33815;DHT22;20121;51.910;8.406;2023-10-09T07:37:22;15.00;99.90
33815;DHT22;20121;51.910;8.406;2023-10-09T07:39:50;15.10;99.90
33815;DHT22;20121;51.910;8.406;2023-10-09T07:42:23;14.90;99.90
33815;DHT22;20121;51.910;8.406;2023-10-09T07:44:59;14.80;99.90
33815;DHT22;20121;51.910;8.406;2023-10-09T07:47:37;15.30;99.90
33815;DHT22;20121;51.910;8.406;2023-10-09T07:50:27;15.20;99.90
33815;DHT22;20121;51.910;8.406;2023-10-09T07:53:12;14.40;99.90
33815;DHT22;20121;51.910;8.406;2023-10-09T07:55:51;15.00;99.90
33815;DHT22;20121;51.910;8.406;2023-10-09T07:58:23;14.70;99.90
33815;DHT22;20121;51.910;8.406;2023-10-09T08:00:56;15.50;99.90
33815;DHT22;20121;51.910;8.406;2023-10-09T08:03:42;15.20;99.90
33815;DHT22;20121;51.910;8.406;2023-10-09T08:06:14;14.80;99.90
33815;DHT22;20121;51.910;8.406;2023-10-09T08:09:15;15.50;99.90
33815;DHT22;20121;51.910;8.406;2023-10-09T08:11:48;15.30;99.90
33815;DHT22;20121;51.910;8.406;2023-10-09T08:14:40;14.90;99.90
33815;DHT22;20121;51.910;8.406;2023-10-09T08:19:46;15.50;99.90
33815;DHT22;20121;51.910;8.406;2023-10-09T08:22:28;15.50;99.90
33815;DHT22;20121;51.910;8.406;2023-10-09T08:24:55;15.40;99.90
33815;DHT22;20121;51.910;8.406;2023-10-09T08:27:24;14.60;99.90
33815;DHT22;20121;51.910;8.406;2023-10-09T08:30:13;15.30;99.90
33815;DHT22;20121;51.910;8.406;2023-10-09T08:32:42;15.70;99.90
33815;DHT22;20121;51.910;8.406;2023-10-09T08:35:09;15.70;99.90
33815;DHT22;20121;51.910;8.406;2023-10-09T08:37:54;15.60;99.90
33815;DHT22;20121;51.910;8.406;2023-10-09T08:40:31;15.60;99.90
33815;DHT22;20121;51.910;8.406;2023-10-09T08:43:09;15.50;99.90
33815;DHT22;20121;51.910;8.406;2023-10-09T08:45:38;15.50;99.90
33815;DHT22;20121;51.910;8.406;2023-10-09T08:48:08;15.40;99.90
33815;DHT22;20121;51.910;8.406;2023-10-09T08:50:44;15.40;99.90
33815;DHT22;20121;51.910;8.406;2023-10-09T08:53:13;15.40;99.90
33815;DHT22;20121;51.910;8.406;2023-10-09T08:55:40;15.70;99.90
33815;DHT22;20121;51.910;8.406;2023-10-09T08:58:07;15.60;99.90
33815;DHT22;20121;51.910;8.406;2023-10-09T09:00:41;15.30;99.90
33815;DHT22;20121;51.910;8.406;2023-10-09T09:03:20;15.60;99.90
33815;DHT22;20121;51.910;8.406;2023-10-09T09:05:56;15.80;99.90
33815;DHT22;20121;51.910;8.406;2023-10-09T09:08:25;15.30;99.90
33815;DHT22;20121;51.910;8.406;2023-10-09T09:11:11;15.80;99.90
33815;DHT22;20121;51.910;8.406;2023-10-09T09:13:48;15.70;99.90
33815;DHT22;20121;51.910;8.406;2023-10-09T09:16:22;15.80;99.90
33815;DHT22;20121;51.910;8.406;2023-10-09T09:21:31;15.80;99.90
33815;DHT22;20121;51.910;8.406;2023-10-09T09:24:03;15.50;99.90
33815;DHT22;20121;51.910;8.406;2023-10-09T09:26:42;16.20;99.90
33815;DHT22;20121;51.910;8.406;2023-10-09T09:29:11;16.00;99.90
33815;DHT22;20121;51.910;8.406;2023-10-09T09:31:37;15.60;99.90
33815;DHT22;20121;51.910;8.406;2023-10-09T09:34:06;16.50;99.90
33815;DHT22;20121;51.910;8.406;2023-10-09T09:36:57;13.70;99.90
33815;DHT22;20121;51.910;8.406;2023-10-09T09:39:26;16.10;99.90
33815;DHT22;20121;51.910;8.406;2023-10-09T09:41:57;16.00;99.90
33815;DHT22;20121;51.910;8.406;2023-10-09T09:44:23;16.10;99.90
33815;DHT22;20121;51.910;8.406;2023-10-09T09:46:58;16.10;99.90
33815;DHT22;20121;51.910;8.406;2023-10-09T09:49:27;16.20;99.90
33815;DHT22;20121;51.910;8.406;2023-10-09T09:52:00;15.80;99.90
33815;DHT22;20121;51.910;8.406;2023-10-09T09:54:26;16.20;99.90
33815;DHT22;20121;51.910;8.406;2023-10-09T09:56:53;16.60;99.90
33815;DHT22;20121;51.910;8.406;2023-10-09T09:59:24;16.20;99.90
33815;DHT22;20121;51.910;8.406;2023-10-09T10:01:55;16.20;99.90
33815;DHT22;20121;51.910;8.406;2023-10-09T10:04:32;16.70;99.90
33815;DHT22;20121;51.910;8.406;2023-10-09T10:07:01;16.30;99.90
33815;DHT22;20121;51.910;8.406;2023-10-09T10:09:35;15.90;99.90
33815;DHT22;20121;51.910;8.406;2023-10-09T10:12:05;16.70;99.90
33815;DHT22;20121;51.910;8.406;2023-10-09T10:14:54;16.40;99.90
33815;DHT22;20121;51.910;8.406;2023-10-09T10:23:18;16.00;99.90
33815;DHT22;20121;51.910;8.406;2023-10-09T10:25:45;16.10;99.90
33815;DHT22;20121;51.910;8.406;2023-10-09T10:28:24;16.40;99.90
33815;DHT22;20121;51.910;8.406;2023-10-09T10:31:08;16.80;99.90
33815;DHT22;20121;51.910;8.406;2023-10-09T10:34:03;16.60;99.90
33815;DHT22;20121;51.910;8.406;2023-10-09T10:36:32;16.50;99.90
33815;DHT22;20121;51.910;8.406;2023-10-09T10:39:04;16.50;99.90
33815;DHT22;20121;51.910;8.406;2023-10-09T10:41:30;16.60;99.90
33815;DHT22;20121;51.910;8.406;2023-10-09T10:44:02;16.60;99.90
33815;DHT22;20121;51.910;8.406;2023-10-09T10:46:46;16.50;99.90
33815;DHT22;20121;51.910;8.406;2023-10-09T10:49:18;16.60;99.90
33815;DHT22;20121;51.910;8.406;2023-10-09T10:51:50;16.60;99.90
33815;DHT22;20121;51.910;8.406;2023-10-09T10:54:43;16.60;99.90
33815;DHT22;20121;51.910;8.406;2023-10-09T10:57:16;16.30;99.90
33815;DHT22;20121;51.910;8.406;2023-10-09T10:59:55;16.60;99.90
33815;DHT22;20121;51.910;8.406;2023-10-09T11:02:38;16.60;99.90
33815;DHT22;20121;51.910;8.406;2023-10-09T11:05:07;16.60;99.90
33815;DHT22;20121;51.910;8.406;2023-10-09T11:07:50;16.70;99.90
33815;DHT22;20121;51.910;8.406;2023-10-09T11:10:22;16.70;99.90
33815;DHT22;20121;51.910;8.406;2023-10-09T11:12:53;16.70;99.90
33815;DHT22;20121;51.910;8.406;2023-10-09T11:15:34;16.70;99.90
33815;DHT22;20121;51.910;8.406;2023-10-09T11:18:14;16.60;99.90
33815;DHT22;20121;51.910;8.406;2023-10-09T11:21:04;16.70;99.90
33815;DHT22;20121;51.910;8.406;2023-10-09T11:23:33;16.70;99.90
33815;DHT22;20121;51.910;8.406;2023-10-09T11:25:59;17.10;99.90
33815;DHT22;20121;51.910;8.406;2023-10-09T11:28:44;16.70;99.90
33815;DHT22;20121;51.910;8.406;2023-10-09T11:31:23;16.70;99.90
33815;DHT22;20121;51.910;8.406;2023-10-09T11:33:50;16.80;99.90
33815;DHT22;20121;51.910;8.406;2023-10-09T11:36:22;16.80;99.90
33815;DHT22;20121;51.910;8.406;2023-10-09T11:39:02;16.80;99.90
33815;DHT22;20121;51.910;8.406;2023-10-09T11:41:43;16.80;99.90
33815;DHT22;20121;51.910;8.406;2023-10-09T11:44:10;16.90;99.90
33815;DHT22;20121;51.910;8.406;2023-10-09T11:46:57;16.80;99.90
33815;DHT22;20121;51.910;8.406;2023-10-09T11:49:24;16.80;99.90
33815;DHT22;20121;51.910;8.406;2023-10-09T11:52:09;16.70;99.90
33815;DHT22;20121;51.910;8.406;2023-10-09T11:54:38;16.80;99.90
33815;DHT22;20121;51.910;8.406;2023-10-09T11:57:04;16.80;99.90
33815;DHT22;20121;51.910;8.406;2023-10-09T11:59:31;16.80;99.90
33815;DHT22;20121;51.910;8.406;2023-10-09T12:02:04;16.80;99.90
33815;DHT22;20121;51.910;8.406;2023-10-09T12:04:30;16.80;99.90
33815;DHT22;20121;51.910;8.406;2023-10-09T12:06:58;16.80;99.90
33815;DHT22;20121;51.910;8.406;2023-10-09T12:09:33;16.80;99.90
33815;DHT22;20121;51.910;8.406;2023-10-09T12:12:03;16.80;99.90
33815;DHT22;20121;51.910;8.406;2023-10-09T12:14:29;16.80;99.90
33815;DHT22;20121;51.910;8.406;2023-10-09T12:17:02;16.80;99.90
33815;DHT22;20121;51.910;8.406;2023-10-09T12:19:35;16.80;99.90
33815;DHT22;20121;51.910;8.406;2023-10-09T12:22:02;16.80;99.90
33815;DHT22;20121;51.910;8.406;2023-10-09T12:24:30;16.80;99.90
33815;DHT22;20121;51.910;8.406;2023-10-09T12:26:56;16.80;99.90
33815;DHT22;20121;51.910;8.406;2023-10-09T12:29:22;16.80;99.90
33815;DHT22;20121;51.910;8.406;2023-10-09T12:31:49;16.80;99.90
33815;DHT22;20121;51.910;8.406;2023-10-09T12:34:23;16.80;99.90
33815;DHT22;20121;51.910;8.406;2023-10-09T12:36:56;16.80;99.90
33815;DHT22;20121;51.910;8.406;2023-10-09T12:39:26;16.80;99.90
33815;DHT22;20121;51.910;8.406;2023-10-09T12:41:56;16.90;99.90
33815;DHT22;20121;51.910;8.406;2023-10-09T12:44:24;16.80;99.90
33815;DHT22;20121;51.910;8.406;2023-10-09T12:46:52;16.80;99.90
33815;DHT22;20121;51.910;8.406;2023-10-09T12:49:21;16.90;99.90
33815;DHT22;20121;51.910;8.406;2023-10-09T12:51:54;16.90;99.90
33815;DHT22;20121;51.910;8.406;2023-10-09T12:54:20;16.90;99.90
33815;DHT22;20121;51.910;8.406;2023-10-09T12:56:46;17.00;99.90
33815;DHT22;20121;51.910;8.406;2023-10-09T12:59:14;16.80;99.90
33815;DHT22;20121;51.910;8.406;2023-10-09T13:01:41;16.90;99.90
33815;DHT22;20121;51.910;8.406;2023-10-09T13:04:13;17.00;99.90
33815;DHT22;20121;51.910;8.406;2023-10-09T13:06:43;17.30;99.90
33815;DHT22;20121;51.910;8.406;2023-10-09T13:09:17;17.00;99.90
33815;DHT22;20121;51.910;8.406;2023-10-09T13:12:01;17.00;99.90
33815;DHT22;20121;51.910;8.406;2023-10-09T13:14:27;17.00;99.90
33815;DHT22;20121;51.910;8.406;2023-10-09T13:16:53;17.00;99.90
33815;DHT22;20121;51.910;8.406;2023-10-09T13:19:19;17.00;99.90
33815;DHT22;20121;51.910;8.406;2023-10-09T13:21:44;16.90;99.90
33815;DHT22;20121;51.910;8.406;2023-10-09T13:24:10;17.20;99.90
33815;DHT22;20121;51.910;8.406;2023-10-09T13:26:39;17.00;99.90
33815;DHT22;20121;51.910;8.406;2023-10-09T13:29:06;17.00;99.90
33815;DHT22;20121;51.910;8.406;2023-10-09T13:31:37;17.30;99.90
33815;DHT22;20121;51.910;8.406;2023-10-09T13:34:04;17.00;99.90
33815;DHT22;20121;51.910;8.406;2023-10-09T13:36:35;17.10;99.90
33815;DHT22;20121;51.910;8.406;2023-10-09T13:39:06;17.00;99.90
33815;DHT22;20121;51.910;8.406;2023-10-09T13:41:59;16.90;99.90
33815;DHT22;20121;51.910;8.406;2023-10-09T13:44:30;17.00;99.90
33815;DHT22;20121;51.910;8.406;2023-10-09T13:46:58;17.00;99.90
33815;DHT22;20121;51.910;8.406;2023-10-09T13:49:24;17.10;99.90
33815;DHT22;20121;51.910;8.406;2023-10-09T13:51:56;17.10;99.90
33815;DHT22;20121;51.910;8.406;2023-10-09T13:54:26;17.10;99.90
33815;DHT22;20121;51.910;8.406;2023-10-09T13:57:13;16.90;99.90
33815;DHT22;20121;51.910;8.406;2023-10-09T13:59:41;17.20;99.90
33815;DHT22;20121;51.910;8.406;2023-10-09T14:02:17;17.20;99.90
33815;DHT22;20121;51.910;8.406;2023-10-09T14:04:44;17.20;99.90
33815;DHT22;20121;51.910;8.406;2023-10-09T14:07:10;17.20;99.90
33815;DHT22;20121;51.910;8.406;2023-10-09T14:09:36;17.20;99.90
33815;DHT22;20121;51.910;8.406;2023-10-09T14:12:10;17.20;99.90
33815;DHT22;20121;51.910;8.406;2023-10-09T14:17:05;17.20;99.90
33815;DHT22;20121;51.910;8.406;2023-10-09T14:19:38;17.20;99.90
33815;DHT22;20121;51.910;8.406;2023-10-09T14:22:03;17.70;99.90
33815;DHT22;20121;51.910;8.406;2023-10-09T14:24:31;17.20;99.90
33815;DHT22;20121;51.910;8.406;2023-10-09T14:27:00;17.30;99.90
33815;DHT22;20121;51.910;8.406;2023-10-09T14:29:30;17.30;99.90
33815;DHT22;20121;51.910;8.406;2023-10-09T14:31:57;17.30;99.90
33815;DHT22;20121;51.910;8.406;2023-10-09T14:34:28;17.30;99.90
33815;DHT22;20121;51.910;8.406;2023-10-09T14:37:01;17.50;99.90
33815;DHT22;20121;51.910;8.406;2023-10-09T14:39:29;17.40;99.90
33815;DHT22;20121;51.910;8.406;2023-10-09T14:41:55;17.30;99.90
33815;DHT22;20121;51.910;8.406;2023-10-09T14:44:25;17.40;99.90
33815;DHT22;20121;51.910;8.406;2023-10-09T14:46:53;17.40;99.90
33815;DHT22;20121;51.910;8.406;2023-10-09T14:49:20;17.40;99.90
33815;DHT22;20121;51.910;8.406;2023-10-09T14:51:47;17.40;99.90
33815;DHT22;20121;51.910;8.406;2023-10-09T14:54:13;17.40;99.90
33815;DHT22;20121;51.910;8.406;2023-10-09T14:56:44;17.40;99.90
33815;DHT22;20121;51.910;8.406;2023-10-09T14:59:11;17.40;99.90
33815;DHT22;20121;51.910;8.406;2023-10-09T15:01:37;17.40;99.90
33815;DHT22;20121;51.910;8.406;2023-10-09T15:04:03;17.80;99.90
33815;DHT22;20121;51.910;8.406;2023-10-09T15:06:29;17.40;99.90
33815;DHT22;20121;51.910;8.406;2023-10-09T15:08:59;17.40;99.90
33815;DHT22;20121;51.910;8.406;2023-10-09T15:11:33;17.40;99.90
33815;DHT22;20121;51.910;8.406;2023-10-09T15:13:58;17.40;99.90
33815;DHT22;20121;51.910;8.406;2023-10-09T15:16:25;17.40;99.90
33815;DHT22;20121;51.910;8.406;2023-10-09T15:18:56;17.40;99.90
33815;DHT22;20121;51.910;8.406;2023-10-09T15:21:23;17.40;99.90
33815;DHT22;20121;51.910;8.406;2023-10-09T15:23:58;17.40;99.90
33815;DHT22;20121;51.910;8.406;2023-10-09T15:26:25;17.40;99.90
33815;DHT22;20121;51.910;8.406;2023-10-09T15:28:51;17.30;99.90
33815;DHT22;20121;51.910;8.406;2023-10-09T15:31:17;17.40;99.90
33815;DHT22;20121;51.910;8.406;2023-10-09T15:33:44;17.70;99.90
33815;DHT22;20121;51.910;8.406;2023-10-09T15:36:14;17.50;99.90
33815;DHT22;20121;51.910;8.406;2023-10-09T15:38:42;17.50;99.90
33815;DHT22;20121;51.910;8.406;2023-10-09T15:41:08;17.50;99.90
33815;DHT22;20121;51.910;8.406;2023-10-09T15:43:35;17.50;99.90
33815;DHT22;20121;51.910;8.406;2023-10-09T15:46:01;17.50;99.90
33815;DHT22;20121;51.910;8.406;2023-10-09T15:48:27;17.50;99.90
33815;DHT22;20121;51.910;8.406;2023-10-09T15:50:52;17.50;99.90
33815;DHT22;20121;51.910;8.406;2023-10-09T15:53:18;17.60;99.90
33815;DHT22;20121;51.910;8.406;2023-10-09T15:55:45;17.10;99.90
33815;DHT22;20121;51.910;8.406;2023-10-09T15:58:11;17.90;99.90
33815;DHT22;20121;51.910;8.406;2023-10-09T16:00:37;17.50;99.90
33815;DHT22;20121;51.910;8.406;2023-10-09T16:03:03;17.50;99.90
33815;DHT22;20121;51.910;8.406;2023-10-09T16:05:30;17.50;99.90
33815;DHT22;20121;51.910;8.406;2023-10-09T16:08:01;17.50;99.90
33815;DHT22;20121;51.910;8.406;2023-10-09T16:10:29;17.50;99.90
33815;DHT22;20121;51.910;8.406;2023-10-09T16:12:56;17.50;99.90
33815;DHT22;20121;51.910;8.406;2023-10-09T16:15:23;17.50;99.90
33815;DHT22;20121;51.910;8.406;2023-10-09T16:17:50;17.50;99.90
33815;DHT22;20121;51.910;8.406;2023-10-09T16:20:27;17.50;99.90
33815;DHT22;20121;51.910;8.406;2023-10-09T16:22:53;17.50;99.90
33815;DHT22;20121;51.910;8.406;2023-10-09T16:25:19;17.50;99.90